createdAt,value
2018-03-29T00:00:19.140Z,95.40
2018-03-29T00:04:52.435Z,95.60
2018-03-29T00:09:25.703Z,95.50
2018-03-29T00:13:58.973Z,95.40
2018-03-29T00:18:32.261Z,95.90
2018-03-29T00:23:05.963Z,96.20
2018-03-29T00:27:39.595Z,96.40
2018-03-29T00:32:12.879Z,96.40
2018-03-29T00:36:46.904Z,96.90
2018-03-29T00:41:20.924Z,96.70
2018-03-29T00:45:54.994Z,97.00
2018-03-29T00:50:28.253Z,97.00
2018-03-29T00:55:01.976Z,96.80
2018-03-29T00:59:36.006Z,96.80
2018-03-29T01:04:10.048Z,97.40
2018-03-29T01:08:43.342Z,97.40
2018-03-29T01:13:17.384Z,97.40
2018-03-29T01:17:50.636Z,97.40
2018-03-29T01:22:23.904Z,97.80
2018-03-29T01:26:57.789Z,98.20
2018-03-29T01:31:31.058Z,99.10
2018-03-29T01:36:04.430Z,99.20
2018-03-29T01:40:38.472Z,99.90
2018-03-29T01:45:12.743Z,99.90
2018-03-29T01:49:46.097Z,99.90
2018-03-29T01:54:20.135Z,99.90
2018-03-29T01:58:53.692Z,99.90
2018-03-29T02:03:26.966Z,99.90
2018-03-29T02:08:00.353Z,99.90
2018-03-29T02:12:34.386Z,99.90
2018-03-29T02:17:08.383Z,99.90
2018-03-29T02:21:41.656Z,99.90
2018-03-29T02:26:14.881Z,99.90
2018-03-29T02:30:49.157Z,99.90
2018-03-29T02:35:23.190Z,99.90
2018-03-29T02:39:56.478Z,99.90
2018-03-29T02:44:30.521Z,99.90
2018-03-29T02:49:04.541Z,99.90
2018-03-29T02:53:38.556Z,99.90
2018-03-29T02:58:11.976Z,99.90
2018-03-29T03:02:46.118Z,99.90
2018-03-29T03:07:19.624Z,99.90
2018-03-29T03:11:53.647Z,99.90
2018-03-29T03:16:27.681Z,99.90
2018-03-29T03:21:01.687Z,99.90
2018-03-29T03:25:35.028Z,99.90
2018-03-29T03:30:08.343Z,99.90
2018-03-29T03:34:41.568Z,99.90
2018-03-29T03:39:15.455Z,99.90
2018-03-29T03:43:49.491Z,99.90
2018-03-29T03:48:22.801Z,99.90
2018-03-29T03:52:56.059Z,99.90
2018-03-29T03:57:30.141Z,99.90
2018-03-29T04:02:04.193Z,99.90
2018-03-29T04:06:37.478Z,99.90
2018-03-29T04:11:10.735Z,99.90
2018-03-29T04:15:44.082Z,99.90
2018-03-29T04:20:17.378Z,99.90
2018-03-29T04:24:51.420Z,99.60
2018-03-29T04:29:25.506Z,99.50
2018-03-29T04:33:58.773Z,99.70
2018-03-29T04:38:31.996Z,99.70
2018-03-29T04:43:06.082Z,99.90
2018-03-29T04:47:40.124Z,99.90
2018-03-29T04:52:13.416Z,99.90
2018-03-29T04:56:48.079Z,99.60
2018-03-29T05:01:21.411Z,99.60
2018-03-29T05:05:54.706Z,99.60
2018-03-29T05:10:28.084Z,99.60
2018-03-29T05:15:02.769Z,99.90
2018-03-29T05:19:36.058Z,99.90
2018-03-29T05:24:09.332Z,99.90
2018-03-29T05:28:42.817Z,99.90
2018-03-29T05:33:16.266Z,99.90
2018-03-29T05:37:50.345Z,99.90
2018-03-29T05:42:23.577Z,99.90
2018-03-29T05:46:56.880Z,99.90
2018-03-29T05:51:30.173Z,99.90
2018-03-29T05:56:03.442Z,99.90
2018-03-29T06:00:36.761Z,99.90
2018-03-29T06:05:10.047Z,99.90
2018-03-29T06:09:44.078Z,99.90
2018-03-29T06:14:18.093Z,99.90
2018-03-29T06:18:52.226Z,99.90
2018-03-29T06:23:26.248Z,99.90
2018-03-29T06:28:00.298Z,99.90
2018-03-29T06:32:33.896Z,99.90
2018-03-29T06:37:07.145Z,99.90
2018-03-29T06:41:40.442Z,99.70
2018-03-29T06:46:13.667Z,99.90
2018-03-29T06:50:46.974Z,99.80
2018-03-29T06:55:20.250Z,99.70
2018-03-29T06:59:53.503Z,99.50
2018-03-29T07:04:26.752Z,99.60
2018-03-29T07:09:00.051Z,99.80
2018-03-29T07:13:34.106Z,98.70
2018-03-29T07:18:07.488Z,98.90
2018-03-29T07:22:41.500Z,98.50
2018-03-29T07:27:14.770Z,98.50
2018-03-29T07:31:48.058Z,97.60
2018-03-29T07:36:21.281Z,98.20
2018-03-29T07:40:54.551Z,97.70
2018-03-29T07:45:28.691Z,96.80
2018-03-29T07:50:02.699Z,97.00
2018-03-29T07:54:36.783Z,97.10
2018-03-29T07:59:10.052Z,97.00
2018-03-29T08:03:44.089Z,96.60
2018-03-29T08:08:17.498Z,96.90
2018-03-29T08:12:50.764Z,96.10
2018-03-29T08:17:24.012Z,93.30
2018-03-29T08:21:57.292Z,89.60
2018-03-29T08:26:30.857Z,84.50
2018-03-29T08:31:04.139Z,79.70
2018-03-29T08:35:37.368Z,79.70
2018-03-29T08:40:10.745Z,83.90
2018-03-29T08:44:45.084Z,81.20
2018-03-29T08:49:19.102Z,76.00
2018-03-29T08:53:53.131Z,69.20
2018-03-29T08:58:27.115Z,63.60
2018-03-29T09:03:00.471Z,63.60
2018-03-29T09:07:33.739Z,62.50
2018-03-29T09:12:07.008Z,66.40
2018-03-29T09:16:40.252Z,67.20
2018-03-29T09:21:13.508Z,72.20
2018-03-29T09:25:47.626Z,75.30
2018-03-29T09:30:22.294Z,73.00
2018-03-29T09:34:55.676Z,72.90
2018-03-29T09:39:29.715Z,64.70
2018-03-29T09:44:03.114Z,64.60
2018-03-29T09:48:37.119Z,59.20
2018-03-29T09:53:10.380Z,59.10
2018-03-29T09:57:43.794Z,60.60
2018-03-29T10:02:18.874Z,62.80
2018-03-29T10:06:58.564Z,69.20
2018-03-29T10:11:32.632Z,72.60
2018-03-29T10:16:05.928Z,72.50
2018-03-29T10:20:39.345Z,71.30
2018-03-29T10:25:12.939Z,69.20
2018-03-29T10:29:46.190Z,67.20
2018-03-29T10:34:19.479Z,70.10
2018-03-29T10:38:52.715Z,57.00
2018-03-29T10:43:25.961Z,46.40
2018-03-29T10:48:00.060Z,46.10
2018-03-29T10:52:33.419Z,46.00
2018-03-29T10:57:06.685Z,48.20
2018-03-29T11:01:39.935Z,54.70
2018-03-29T11:06:13.174Z,61.50
2018-03-29T11:10:46.432Z,65.00
2018-03-29T11:15:20.597Z,70.70
2018-03-29T11:19:53.974Z,70.70
2018-03-29T11:24:27.997Z,77.70
2018-03-29T11:29:02.016Z,80.60
2018-03-29T11:33:35.280Z,80.40
2018-03-29T11:38:08.561Z,81.90
2018-03-29T11:42:41.861Z,82.50
2018-03-29T11:47:15.151Z,82.70
2018-03-29T11:51:49.183Z,85.40
2018-03-29T11:56:23.198Z,84.50
2018-03-29T12:00:57.433Z,84.40
2018-03-29T12:05:31.489Z,80.80
2018-03-29T12:10:04.836Z,80.80
2018-03-29T12:14:38.097Z,82.20
2018-03-29T12:19:11.368Z,83.40
2018-03-29T12:23:45.437Z,89.50
2018-03-29T12:28:18.728Z,89.50
2018-03-29T12:32:52.961Z,93.00
2018-03-29T12:37:27.000Z,93.20
2018-03-29T12:42:00.299Z,93.10
2018-03-29T12:46:35.095Z,85.00
2018-03-29T12:51:09.145Z,75.70
2018-03-29T12:55:43.192Z,76.10
2018-03-29T13:00:17.232Z,68.80
2018-03-29T13:04:50.526Z,68.70
2018-03-29T13:09:24.752Z,56.20
2018-03-29T13:13:58.802Z,56.20
2018-03-29T13:18:32.088Z,56.10
2018-03-29T13:23:06.159Z,62.70
2018-03-29T13:27:39.584Z,62.70
2018-03-29T13:32:13.120Z,64.40
2018-03-29T13:36:46.605Z,70.50
2018-03-29T13:41:20.192Z,68.50
2018-03-29T13:45:53.441Z,67.30
2018-03-29T13:50:26.701Z,56.90
2018-03-29T13:54:59.923Z,51.00
2018-03-29T13:59:33.203Z,48.60
2018-03-29T14:04:07.235Z,49.10
2018-03-29T14:08:41.355Z,49.30
2018-03-29T14:13:15.347Z,49.00
2018-03-29T14:17:49.436Z,49.00
2018-03-29T14:22:22.717Z,47.40
2018-03-29T14:26:56.745Z,48.10
2018-03-29T14:31:30.781Z,50.50
2018-03-29T14:36:04.210Z,50.30
2018-03-29T14:40:37.529Z,52.00
2018-03-29T14:45:11.333Z,55.70
2018-03-29T14:49:44.974Z,61.50
2018-03-29T14:54:18.258Z,62.90
2018-03-29T14:58:51.512Z,66.00
2018-03-29T15:03:24.772Z,68.20
2018-03-29T15:07:58.078Z,66.90
2018-03-29T15:12:31.301Z,66.40
2018-03-29T15:17:04.560Z,68.50
2018-03-29T15:21:37.812Z,66.00
2018-03-29T15:26:11.032Z,69.00
2018-03-29T15:30:44.292Z,66.40
2018-03-29T15:35:18.536Z,65.90
2018-03-29T15:39:52.065Z,65.80
2018-03-29T15:44:25.291Z,65.70
2018-03-29T15:48:58.682Z,67.00
2018-03-29T15:53:32.642Z,67.30
2018-03-29T15:58:05.910Z,67.20
2018-03-29T16:02:39.937Z,64.60
2018-03-29T16:07:14.084Z,64.70
2018-03-29T16:11:47.383Z,64.70
2018-03-29T16:16:20.705Z,68.40
2018-03-29T16:20:53.947Z,70.50
2018-03-29T16:25:27.182Z,71.70
2018-03-29T16:30:01.193Z,72.20
2018-03-29T16:34:34.421Z,72.20
2018-03-29T16:39:08.545Z,75.20
2018-03-29T16:43:42.815Z,73.70
2018-03-29T16:48:16.080Z,73.60
2018-03-29T16:52:50.195Z,73.50
2018-03-29T16:57:24.239Z,79.60
2018-03-29T17:01:58.234Z,79.60
2018-03-29T17:06:31.489Z,79.40
2018-03-29T17:11:04.775Z,79.10
2018-03-29T17:15:38.911Z,82.20
2018-03-29T17:20:12.972Z,82.40
2018-03-29T17:24:46.246Z,82.40
2018-03-29T17:29:20.679Z,84.50
2018-03-29T17:33:54.814Z,85.20
2018-03-29T17:38:28.848Z,85.90
2018-03-29T17:43:02.063Z,85.80
2018-03-29T17:47:36.068Z,84.50
2018-03-29T17:52:10.050Z,87.10
2018-03-29T17:56:43.284Z,87.20
2018-03-29T18:01:16.623Z,87.80
2018-03-29T18:05:50.037Z,89.30
2018-03-29T18:10:23.344Z,90.10
2018-03-29T18:14:56.656Z,90.30
2018-03-29T18:19:29.900Z,91.10
2018-03-29T18:24:03.376Z,91.70
2018-03-29T18:28:36.688Z,92.40
2018-03-29T18:33:09.997Z,93.20
2018-03-29T18:37:43.252Z,93.70
2018-03-29T18:42:16.608Z,93.90
2018-03-29T18:46:50.524Z,93.80
2018-03-29T18:51:24.566Z,94.00
2018-03-29T18:55:57.837Z,94.00
2018-03-29T19:00:31.105Z,95.10
2018-03-29T19:05:04.368Z,95.30
2018-03-29T19:09:37.638Z,95.40
2018-03-29T19:14:11.745Z,95.30
2018-03-29T19:18:45.031Z,95.20
2018-03-29T19:23:18.323Z,95.70
2018-03-29T19:27:52.375Z,96.80
2018-03-29T19:32:25.641Z,96.80
2018-03-29T19:36:59.633Z,97.40
2018-03-29T19:41:32.893Z,97.40
2018-03-29T19:46:07.019Z,97.70
2018-03-29T19:50:42.097Z,97.40
2018-03-29T19:55:15.358Z,97.40
2018-03-29T19:59:49.864Z,96.90
2018-03-29T20:04:23.836Z,96.80
2018-03-29T20:08:57.869Z,97.10
2018-03-29T20:13:32.097Z,97.30
2018-03-29T20:18:06.206Z,97.40
2018-03-29T20:22:39.455Z,97.40
2018-03-29T20:27:17.534Z,97.20
2018-03-29T20:31:51.360Z,97.20
2018-03-29T20:36:25.372Z,97.30
2018-03-29T20:40:58.712Z,97.30
2018-03-29T20:45:32.841Z,97.40
2018-03-29T20:50:06.961Z,97.50
2018-03-29T20:54:41.014Z,97.60
2018-03-29T20:59:14.296Z,97.50
2018-03-29T21:03:48.313Z,98.30
2018-03-29T21:08:21.757Z,98.30
2018-03-29T21:12:55.055Z,98.40
2018-03-29T21:17:29.253Z,98.40
2018-03-29T21:22:02.500Z,99.00
2018-03-29T21:26:35.783Z,99.10
2018-03-29T21:31:09.323Z,98.80
2018-03-29T21:35:42.922Z,98.90
2018-03-29T21:40:16.947Z,98.60
2018-03-29T21:44:50.984Z,98.60
2018-03-29T21:49:25.107Z,99.20
2018-03-29T21:53:59.119Z,99.40
2018-03-29T21:58:33.198Z,99.60
2018-03-29T22:03:06.452Z,99.60
2018-03-29T22:07:40.488Z,99.70
2018-03-29T22:12:14.604Z,99.90
2018-03-29T22:16:47.851Z,99.90
2018-03-29T22:21:21.157Z,99.80
2018-03-29T22:25:54.510Z,99.90
2018-03-29T22:30:28.166Z,99.90
2018-03-29T22:35:02.192Z,99.90
2018-03-29T22:39:36.319Z,99.90
2018-03-29T22:44:10.343Z,99.90
2018-03-29T22:48:44.473Z,99.90
2018-03-29T22:53:18.601Z,99.90
2018-03-29T22:57:52.628Z,99.90
2018-03-29T23:02:26.656Z,99.60
2018-03-29T23:07:00.780Z,99.40
2018-03-29T23:11:34.908Z,99.50
2018-03-29T23:16:08.943Z,99.30
2018-03-29T23:20:43.163Z,99.50
2018-03-29T23:25:17.286Z,99.50
2018-03-29T23:29:51.619Z,99.60
2018-03-29T23:34:25.683Z,99.70
2018-03-29T23:38:58.935Z,99.40
2018-03-29T23:43:34.856Z,99.40
2018-03-29T23:48:08.139Z,99.70
2018-03-29T23:52:42.411Z,99.90
2018-03-29T23:57:15.635Z,99.90
